Dublin, Indiana
Current Conditions -  °F | °C
As of 7:53 AM on Friday 19 Dec 2014 (Local Time) from KMIE Reporting Station
Overcast Overcast  
Wind Chill: 18°   Ceiling: 2600
Heat Index: 26°   Visibility: 9mi
Dew Point: 21°   Wind: 7mph
Humidity: 81%   Direction: 330°NNW
Pressure: 30.27"   Gusts: NA
Location:  39.81°N, 85.21°W
Report Text: KMIE 191253Z AUTO 33006KT 9SM OVC026 M03/M06 A3027 RMK AO2 SLP258 T10331061
Loading
Personal Weather Stations






























Interactive Weather Map New forecast layout! Learn more

10-Day Weather Forecast

Advertisements
Track Severe Weather on mobile